Time;durP1;ratioP1;P1;durP2;ratioP2;P2;SDS_P1;SDS_P2;PMS_P1;PMS_P2;Temp;Humidity;BMP_temperature;BMP_pressure;BME280_temperature;BME280_humidity;BME280_pressure;Samples;Min_cycle;Max_cycle;Signal;HPM_P1;HPM_P2
2022/05/02 00:01:26;;;;;;;8.27;5.47;;;8.10;99.90;;;;;;5115603;28;20123;-70
2022/05/02 00:03:51;;;;;;;7.50;5.10;;;8.10;99.90;;;;;;5115996;28;20468;-68
2022/05/02 00:06:17;;;;;;;8.43;5.80;;;8.10;99.90;;;;;;5115578;28;20036;-67
2022/05/02 00:08:43;;;;;;;10.07;5.63;;;8.00;99.90;;;;;;5148444;27;20047;-68
2022/05/02 00:11:09;;;;;;;9.63;6.00;;;8.00;99.90;;;;;;5131393;27;20131;-68
2022/05/02 00:13:35;;;;;;;10.57;6.30;;;8.00;99.90;;;;;;5115225;28;20403;-68
2022/05/02 00:16:00;;;;;;;8.37;5.13;;;8.00;99.90;;;;;;5115468;28;20044;-68
2022/05/02 00:18:28;;;;;;;7.70;5.20;;;7.90;99.90;;;;;;5113844;28;20105;-68
2022/05/02 00:20:54;;;;;;;8.27;5.65;;;7.90;99.90;;;;;;5115114;28;20105;-67
2022/05/02 00:23:19;;;;;;;10.63;5.93;;;7.90;99.90;;;;;;5115355;28;20047;-68
2022/05/02 00:25:45;;;;;;;11.03;6.03;;;7.90;99.90;;;;;;5148116;27;20282;-68
2022/05/02 00:28:13;;;;;;;10.73;5.77;;;7.80;99.90;;;;;;5115512;28;20043;-68
2022/05/02 00:30:39;;;;;;;8.80;5.78;;;7.80;99.90;;;;;;5114784;28;20079;-68
2022/05/02 00:33:05;;;;;;;10.27;6.05;;;7.80;99.90;;;;;;5115062;27;20082;-68
2022/05/02 00:35:31;;;;;;;10.93;6.75;;;7.70;99.90;;;;;;5114874;28;20075;-68
2022/05/02 00:37:57;;;;;;;10.02;6.32;;;7.70;99.90;;;;;;5115044;28;20126;-68
2022/05/02 00:40:23;;;;;;;7.03;5.77;;;7.70;99.90;;;;;;5115409;28;20109;-68
2022/05/02 00:42:49;;;;;;;10.13;6.77;;;7.70;99.90;;;;;;5113412;28;20039;-68
2022/05/02 00:45:16;;;;;;;9.97;6.70;;;7.60;99.90;;;;;;5114909;28;20051;-68
2022/05/02 00:47:50;;;;;;;11.30;6.70;;;7.70;99.90;;;;;;5114502;28;20415;-68
2022/05/02 00:50:16;;;;;;;10.60;6.95;;;7.70;99.90;;;;;;5113672;28;20048;-68
2022/05/02 00:52:42;;;;;;;10.00;6.83;;;7.70;99.90;;;;;;5113145;28;20188;-68
2022/05/02 00:55:08;;;;;;;10.80;6.60;;;7.70;99.90;;;;;;5113987;28;20446;-68
2022/05/02 00:57:34;;;;;;;11.57;7.88;;;7.70;99.90;;;;;;5113453;28;20050;-68
2022/05/02 01:00:03;;;;;;;9.23;6.45;;;7.70;99.90;;;;;;5114547;28;20474;-68
2022/05/02 01:02:28;;;;;;;8.77;6.63;;;7.70;99.90;;;;;;5130700;27;20063;-68
2022/05/02 01:04:54;;;;;;;9.73;6.23;;;7.60;99.90;;;;;;5114481;28;20050;-68
2022/05/02 01:07:20;;;;;;;10.33;6.97;;;7.70;99.90;;;;;;5114476;28;20087;-68
2022/05/02 01:09:49;;;;;;;11.07;6.63;;;7.60;99.90;;;;;;5113029;28;20044;-68
2022/05/02 01:12:24;;;;;;;10.30;6.32;;;7.60;99.90;;;;;;5113351;28;20056;-68
2022/05/02 01:14:53;;;;;;;10.15;6.22;;;7.60;99.90;;;;;;5113197;28;20051;-68
2022/05/02 01:17:19;;;;;;;10.15;6.63;;;7.50;99.90;;;;;;5114249;28;20480;-68
2022/05/02 01:19:45;;;;;;;8.27;6.68;;;7.50;99.90;;;;;;5113851;28;20036;-68
2022/05/02 01:22:11;;;;;;;9.10;6.63;;;7.50;99.90;;;;;;5147506;27;20489;-68
2022/05/02 01:24:45;;;;;;;10.98;7.20;;;7.50;99.90;;;;;;5113793;28;20122;-68
2022/05/02 01:27:12;;;;;;;9.55;7.07;;;7.50;99.90;;;;;;5130337;27;20052;-68
2022/05/02 01:29:41;;;;;;;10.68;6.97;;;7.50;99.90;;;;;;5113596;28;20044;-68
2022/05/02 01:32:10;;;;;;;9.23;6.72;;;7.40;99.90;;;;;;5113610;28;20541;-68
2022/05/02 01:34:40;;;;;;;10.65;6.60;;;7.40;99.90;;;;;;5113575;28;20082;-69
2022/05/02 01:37:07;;;;;;;13.70;7.53;;;7.40;99.90;;;;;;5114074;27;20104;-68
2022/05/02 01:39:33;;;;;;;10.02;7.50;;;7.40;99.90;;;;;;5113852;28;20464;-68
2022/05/02 01:42:10;;;;;;;10.03;7.33;;;7.30;99.90;;;;;;5113447;28;20181;-68
2022/05/02 01:44:37;;;;;;;11.57;7.35;;;7.30;99.90;;;;;;5113515;28;20107;-71
2022/05/02 01:47:04;;;;;;;10.63;7.72;;;7.40;99.90;;;;;;5146881;27;20404;-68
2022/05/02 01:49:30;;;;;;;10.48;7.43;;;7.40;99.90;;;;;;5113654;28;20043;-68
2022/05/02 01:51:57;;;;;;;10.10;7.23;;;7.40;99.90;;;;;;5113201;28;20105;-68
2022/05/02 01:54:24;;;;;;;9.85;6.90;;;7.40;99.90;;;;;;5113640;28;20058;-68
2022/05/02 01:56:50;;;;;;;11.55;7.60;;;7.40;99.90;;;;;;5112085;28;20043;-68
2022/05/02 01:59:16;;;;;;;10.97;7.03;;;7.40;99.90;;;;;;5113672;28;20089;-68
2022/05/02 02:01:41;;;;;;;11.83;7.37;;;7.40;99.90;;;;;;5113006;28;20136;-68
2022/05/02 02:06:52;;;;;;;11.13;7.20;;;7.30;99.90;;;;;;5113338;28;20101;-68
2022/05/02 02:09:18;;;;;;;12.07;7.05;;;7.30;99.90;;;;;;5113367;28;20108;-68
2022/05/02 02:11:44;;;;;;;11.52;6.80;;;7.30;99.90;;;;;;5113071;28;20084;-68
2022/05/02 02:14:10;;;;;;;8.67;6.43;;;7.20;99.90;;;;;;5112395;28;20051;-68
2022/05/02 02:16:36;;;;;;;11.83;8.03;;;7.20;99.90;;;;;;5113331;28;20048;-68
2022/05/02 02:19:02;;;;;;;8.50;6.70;;;7.20;99.90;;;;;;5112953;28;20066;-68
2022/05/02 02:21:28;;;;;;;10.80;7.25;;;7.20;99.90;;;;;;5112331;28;20048;-68
2022/05/02 02:23:54;;;;;;;11.03;7.30;;;7.10;99.90;;;;;;5113028;28;20480;-68
2022/05/02 02:26:19;;;;;;;12.87;7.23;;;7.10;99.90;;;;;;5112291;28;20522;-68
2022/05/02 02:28:45;;;;;;;9.63;7.10;;;7.10;99.90;;;;;;5146420;27;20051;-68
2022/05/02 02:31:11;;;;;;;10.47;6.77;;;7.00;99.90;;;;;;5113170;28;20043;-68
2022/05/02 02:33:40;;;;;;;12.00;7.17;;;6.90;99.90;;;;;;5113192;28;20055;-68
2022/05/02 02:36:06;;;;;;;11.40;7.70;;;7.00;99.90;;;;;;5111899;28;20111;-68
2022/05/02 02:38:31;;;;;;;11.10;7.50;;;7.00;99.90;;;;;;5113123;28;20547;-68
2022/05/02 02:40:57;;;;;;;10.50;7.27;;;7.00;99.90;;;;;;5112854;28;20044;-68
2022/05/02 02:43:23;;;;;;;10.47;7.70;;;7.00;99.90;;;;;;5114730;28;20044;-68
2022/05/02 02:45:48;;;;;;;12.23;8.07;;;7.00;99.90;;;;;;5116887;28;20130;-68
2022/05/02 02:48:14;;;;;;;11.73;7.37;;;7.00;99.90;;;;;;5116067;28;20048;-68
2022/05/02 02:50:40;;;;;;;9.87;6.87;;;6.90;99.90;;;;;;5117117;28;20043;-68
2022/05/02 02:53:06;;;;;;;11.07;8.23;;;6.90;99.90;;;;;;5116460;28;20071;-68
2022/05/02 02:55:32;;;;;;;10.60;7.50;;;6.90;99.90;;;;;;5116942;28;20048;-68
2022/05/02 02:57:57;;;;;;;10.93;7.35;;;6.90;99.90;;;;;;5116758;28;20084;-69
2022/05/02 03:00:24;;;;;;;9.90;7.07;;;;;;;;;;5116957;28;20051;-68
2022/05/02 03:02:50;;;;;;;12.60;8.40;;;6.80;99.90;;;;;;5116655;28;20047;-68
2022/05/02 03:08:00;;;;;;;9.98;7.32;;;6.80;99.90;;;;;;5116537;28;20047;-68
2022/05/02 03:10:27;;;;;;;11.23;7.77;;;6.70;99.90;;;;;;5116646;28;20048;-68
2022/05/02 03:12:54;;;;;;;10.00;7.68;;;6.70;99.90;;;;;;5116494;28;20185;-69
2022/05/02 03:15:20;;;;;;;10.00;7.53;;;6.70;99.90;;;;;;5116828;28;20047;-68
2022/05/02 03:17:46;;;;;;;12.60;7.32;;;6.70;99.90;;;;;;5116302;28;20044;-71
2022/05/02 03:20:12;;;;;;;11.23;7.77;;;6.70;99.90;;;;;;5116570;28;20031;-68
2022/05/02 03:22:38;;;;;;;10.40;7.77;;;6.70;99.90;;;;;;5115516;28;20077;-68
2022/05/02 03:25:04;;;;;;;11.83;8.43;;;6.70;99.90;;;;;;5116115;28;20051;-68
2022/05/02 03:27:30;;;;;;;13.35;8.63;;;6.70;99.90;;;;;;5116510;28;20040;-68
2022/05/02 03:29:55;;;;;;;13.80;8.83;;;6.70;99.90;;;;;;5114949;28;20044;-68
2022/05/02 03:32:21;;;;;;;12.70;8.10;;;6.70;99.90;;;;;;5115378;28;20043;-68
2022/05/02 03:34:47;;;;;;;12.07;7.80;;;6.70;99.90;;;;;;5115239;28;20055;-68
2022/05/02 03:37:12;;;;;;;11.23;7.30;;;6.60;99.90;;;;;;5116130;28;20046;-68
2022/05/02 03:39:38;;;;;;;11.30;8.47;;;6.60;99.90;;;;;;5115200;28;20511;-68
2022/05/02 03:42:04;;;;;;;12.03;8.80;;;6.60;99.90;;;;;;5115792;28;20112;-68
2022/05/02 03:44:30;;;;;;;11.05;9.38;;;6.60;99.90;;;;;;5149623;27;20140;-68
2022/05/02 03:46:56;;;;;;;16.70;9.50;;;6.50;99.90;;;;;;5115801;28;20087;-69
2022/05/02 03:49:21;;;;;;;13.93;8.90;;;6.50;99.90;;;;;;5115861;28;20035;-68
2022/05/02 03:51:47;;;;;;;11.97;8.90;;;6.50;99.90;;;;;;5115532;28;20058;-68
2022/05/02 03:54:13;;;;;;;11.23;8.27;;;6.50;99.90;;;;;;5114193;28;20131;-68
2022/05/02 03:56:38;;;;;;;9.80;8.63;;;6.50;99.90;;;;;;5114375;28;20070;-68
2022/05/02 03:59:04;;;;;;;12.27;8.93;;;6.50;99.90;;;;;;5115539;28;20055;-68
2022/05/02 04:01:31;;;;;;;11.80;8.77;;;6.50;99.90;;;;;;5115712;28;20054;-68
2022/05/02 04:03:57;;;;;;;13.38;9.88;;;6.50;99.90;;;;;;5115403;28;20055;-68
2022/05/02 04:06:22;;;;;;;12.90;9.83;;;6.50;99.90;;;;;;5115634;28;20077;-68
2022/05/02 04:08:48;;;;;;;12.73;9.43;;;6.40;99.90;;;;;;5115705;28;20039;-68
2022/05/02 04:11:14;;;;;;;13.07;10.37;;;6.40;99.90;;;;;;5115145;28;20048;-68
2022/05/02 04:13:39;;;;;;;14.97;10.23;;;6.40;99.90;;;;;;5115491;28;20055;-69
2022/05/02 04:16:05;;;;;;;14.63;10.03;;;6.40;99.90;;;;;;5115245;28;20131;-68
2022/05/02 04:18:31;;;;;;;13.00;10.70;;;6.30;99.90;;;;;;5115405;28;20104;-68
2022/05/02 04:20:56;;;;;;;15.20;12.07;;;6.30;99.90;;;;;;5115146;28;20122;-68
2022/05/02 04:23:22;;;;;;;14.40;11.27;;;6.30;99.90;;;;;;5115054;28;20050;-68
2022/05/02 04:25:48;;;;;;;15.37;11.13;;;6.30;99.90;;;;;;5115251;28;20053;-68
2022/05/02 04:28:14;;;;;;;13.47;11.23;;;6.30;99.90;;;;;;5114959;28;20055;-68
2022/05/02 04:30:39;;;;;;;12.77;10.90;;;6.40;99.90;;;;;;5115122;28;20036;-68
2022/05/02 04:33:05;;;;;;;13.53;10.53;;;6.40;99.90;;;;;;5113846;28;20050;-68
2022/05/02 04:35:31;;;;;;;13.73;11.93;;;6.40;99.90;;;;;;5114188;28;20103;-68
2022/05/02 04:37:58;;;;;;;14.93;10.57;;;6.40;99.90;;;;;;5114690;28;20522;-68
2022/05/02 04:40:24;;;;;;;15.40;10.55;;;6.30;99.90;;;;;;5115014;28;20400;-68
2022/05/02 04:42:50;;;;;;;13.00;10.40;;;6.30;99.90;;;;;;5115090;28;20040;-68
2022/05/02 04:45:16;;;;;;;14.27;10.57;;;6.40;99.90;;;;;;5113411;28;20054;-68
2022/05/02 04:47:41;;;;;;;15.57;11.50;;;6.40;99.90;;;;;;5114874;28;20096;-68
2022/05/02 04:50:07;;;;;;;16.23;12.00;;;6.40;99.90;;;;;;5114467;27;20551;-68
2022/05/02 04:52:33;;;;;;;15.05;11.23;;;6.40;99.90;;;;;;5114226;28;20059;-68
2022/05/02 04:54:59;;;;;;;16.00;11.77;;;6.40;99.90;;;;;;5113466;28;20510;-69
2022/05/02 04:57:24;;;;;;;13.40;11.07;;;6.50;99.90;;;;;;5114605;28;20052;-68
2022/05/02 04:59:50;;;;;;;14.00;10.83;;;6.50;99.90;;;;;;5114568;28;20085;-68
2022/05/02 05:02:16;;;;;;;14.23;11.03;;;6.50;99.90;;;;;;5114282;28;20252;-68
2022/05/02 05:04:41;;;;;;;14.83;10.93;;;6.50;99.90;;;;;;5113772;28;20054;-68
2022/05/02 05:07:07;;;;;;;16.70;11.37;;;6.60;99.90;;;;;;5114171;28;20069;-68
2022/05/02 05:09:33;;;;;;;15.17;10.67;;;6.60;99.90;;;;;;5114244;28;20047;-68
2022/05/02 05:12:17;;;;;;;14.70;11.23;;;6.70;99.90;;;;;;5114166;28;20040;-70
2022/05/02 05:18:20;;;;;;;13.23;11.10;;;6.80;99.90;;;;;;5081666;28;20074;-68
2022/05/02 05:21:07;;;;;;;13.20;11.75;;;6.80;99.90;;;;;;5114254;28;20043;-68
2022/05/02 05:23:56;;;;;;;13.40;11.57;;;7.00;99.90;;;;;;5096197;28;20454;-68
2022/05/02 05:26:34;;;;;;;16.17;11.45;;;7.00;99.90;;;;;;5113971;28;20055;-68
2022/05/02 05:29:07;;;;;;;13.98;11.43;;;7.10;99.90;;;;;;5113931;28;20044;-70
2022/05/02 05:31:41;;;;;;;13.07;11.20;;;7.20;99.90;;;;;;5113197;28;20043;-68
2022/05/02 05:34:39;;;;;;;15.43;11.75;;;7.30;99.90;;;;;;5114141;28;20075;-68
2022/05/02 05:37:14;;;;;;;15.15;11.75;;;7.50;99.90;;;;;;5113837;28;20050;-68
2022/05/02 05:39:58;;;;;;;12.88;9.57;;;7.70;99.90;;;;;;5113069;28;20135;-68
2022/05/02 05:42:39;;;;;;;16.23;10.52;;;7.90;99.90;;;;;;5113586;28;20085;-68
2022/05/02 05:45:15;;;;;;;11.02;8.70;;;8.20;99.90;;;;;;5113673;28;20070;-69
2022/05/02 05:48:02;;;;;;;11.93;8.63;;;8.70;99.90;;;;;;5112797;28;20149;-68
2022/05/02 05:50:35;;;;;;;11.20;7.97;;;10.00;99.90;;;;;;5112455;28;20058;-69
2022/05/02 05:53:01;;;;;;;11.80;7.40;;;;;;;;;;5114035;28;20056;-69
2022/05/02 05:55:45;;;;;;;9.93;7.20;;;12.60;99.90;;;;;;5113517;28;20290;-68
2022/05/02 05:58:20;;;;;;;9.53;6.77;;;13.60;99.90;;;;;;5113458;28;20282;-69
2022/05/02 06:00:50;;;;;;;9.82;5.85;;;14.50;99.90;;;;;;5113604;28;20273;-69
2022/05/02 06:03:20;;;;;;;9.00;5.40;;;15.60;99.60;;;;;;5113284;28;20114;-69
2022/05/02 06:05:47;;;;;;;7.87;4.73;;;16.30;99.50;;;;;;5129604;27;20285;-69
2022/05/02 06:08:22;;;;;;;9.23;5.60;;;16.30;92.90;;;;;;5113143;28;20638;-69
2022/05/02 06:10:52;;;;;;;7.23;4.83;;;16.90;73.30;;;;;;5113474;28;20297;-69
2022/05/02 06:13:18;;;;;;;8.97;4.67;;;17.50;88.30;;;;;;5113168;28;20705;-69
2022/05/02 06:18:37;;;;;;;7.90;4.50;;;18.70;95.20;;;;;;5111837;28;20293;-69
2022/05/02 06:21:05;;;;;;;8.03;4.77;;;19.00;62.50;;;;;;5113340;28;20348;-69
2022/05/02 06:23:46;;;;;;;6.80;5.00;;;19.60;59.60;;;;;;5113481;28;20040;-69
2022/05/02 06:26:14;;;;;;;7.93;3.80;;;19.60;53.60;;;;;;5113131;28;20046;-69
2022/05/02 06:28:42;;;;;;;8.70;4.50;;;19.90;55.20;;;;;;5113307;28;20047;-69
2022/05/02 06:31:29;;;;;;;8.13;4.90;;;20.40;53.60;;;;;;5112885;28;20046;-69
2022/05/02 06:33:57;;;;;;;9.07;4.43;;;20.60;49.00;;;;;;5113330;28;20051;-69
2022/05/02 06:36:49;;;;;;;5.97;3.90;;;20.90;51.30;;;;;;5112929;28;20047;-69
2022/05/02 06:39:40;;;;;;;9.03;4.13;;;20.90;47.30;;;;;;5112937;28;20096;-69
2022/05/02 06:42:33;;;;;;;8.10;4.30;;;21.20;46.40;;;;;;5113306;28;20408;-69
2022/05/02 06:45:08;;;;;;;7.10;4.37;;;21.30;44.80;;;;;;5113333;28;20054;-69
2022/05/02 06:48:03;;;;;;;6.28;4.40;;;21.50;47.70;;;;;;5113503;28;20074;-69
2022/05/02 06:50:32;;;;;;;6.83;4.40;;;21.90;45.60;;;;;;5112818;28;20476;-69
2022/05/02 06:53:11;;;;;;;7.00;4.50;;;22.20;45.90;;;;;;5113234;28;20064;-69
2022/05/02 06:56:15;;;;;;;6.77;4.03;;;22.20;44.10;;;;;;5113124;28;20139;-69
2022/05/02 06:58:59;;;;;;;6.73;4.40;;;22.30;44.00;;;;;;5110955;28;20051;-69
2022/05/02 07:01:38;;;;;;;8.60;4.17;;;;;;;;;;5112671;28;20130;-70
2022/05/02 07:04:25;;;;;;;8.87;4.23;;;22.90;40.30;;;;;;5112971;28;20055;-70
2022/05/02 07:07:08;;;;;;;10.37;3.93;;;23.10;39.30;;;;;;5113165;28;20049;-69
2022/05/02 07:10:02;;;;;;;6.53;3.93;;;23.20;38.90;;;;;;5112612;28;20048;-69
2022/05/02 07:12:31;;;;;;;5.77;3.83;;;23.20;39.10;;;;;;5106862;28;20052;-70
2022/05/02 07:15:06;;;;;;;7.37;4.00;;;23.30;41.00;;;;;;5112979;28;20043;-71
2022/05/02 07:17:53;;;;;;;6.27;4.20;;;23.60;72.20;;;;;;5112566;28;20134;-71
2022/05/02 07:20:46;;;;;;;8.30;4.00;;;23.90;39.20;;;;;;5111674;28;20348;-72
2022/05/02 07:23:33;;;;;;;5.97;4.03;;;23.80;39.00;;;;;;5112465;28;20048;-72
2022/05/02 07:26:18;;;;;;;6.33;4.60;;;24.30;38.30;;;;;;5111978;28;20051;-71
2022/05/02 07:28:52;;;;;;;10.47;5.23;;;24.40;37.80;;;;;;5113228;28;20043;-71
2022/05/02 07:31:23;;;;;;;6.40;4.22;;;24.30;37.70;;;;;;5116192;28;20047;-71
2022/05/02 07:33:51;;;;;;;7.47;4.57;;;24.70;38.20;;;;;;5116346;28;20055;-72
2022/05/02 07:36:18;;;;;;;5.90;4.47;;;24.90;38.30;;;;;;5115973;28;20051;-72
2022/05/02 07:38:46;;;;;;;7.40;3.90;;;;;;;;;;5116528;28;20040;-71
2022/05/02 07:41:23;;;;;;;8.03;4.40;;;25.00;75.40;;;;;;5116478;28;20612;-72
2022/05/02 07:44:08;;;;;;;6.83;4.47;;;25.10;47.20;;;;;;5116421;28;20051;-71
2022/05/02 07:46:45;;;;;;;9.20;5.13;;;;;;;;;;5116084;28;20043;-71
2022/05/02 07:49:25;;;;;;;7.07;4.47;;;25.30;69.70;;;;;;5116189;28;20051;-71
2022/05/02 07:51:52;;;;;;;7.27;5.03;;;25.40;39.20;;;;;;5114829;28;20410;-72
2022/05/02 07:54:20;;;;;;;7.73;5.20;;;25.60;37.20;;;;;;5114587;28;20047;-72
2022/05/02 07:56:48;;;;;;;7.90;5.50;;;25.70;36.40;;;;;;5115952;28;20494;-71
2022/05/02 07:59:20;;;;;;;9.17;5.13;;;25.90;36.00;;;;;;5115842;28;20044;-71
2022/05/02 08:01:45;;;;;;;7.10;5.10;;;25.70;36.40;;;;;;5133557;27;20050;-70
2022/05/02 08:04:15;;;;;;;7.60;5.10;;;;;;;;;;5135986;27;20514;-70
2022/05/02 08:06:50;;;;;;;9.27;4.87;;;25.40;35.60;;;;;;5133406;27;20071;-70
2022/05/02 08:09:49;;;;;;;7.77;4.70;;;25.00;36.80;;;;;;5135715;27;20035;-69
2022/05/02 08:12:18;;;;;;;9.13;4.80;;;24.00;37.70;;;;;;5115585;28;20052;-69
2022/05/02 08:15:10;;;;;;;7.03;5.27;;;22.30;39.00;;;;;;5115491;28;20468;-69
2022/05/02 08:18:03;;;;;;;8.63;4.93;;;21.50;41.40;;;;;;5108177;28;20051;-69
2022/05/02 08:21:05;;;;;;;8.47;5.60;;;20.90;41.60;;;;;;5115234;28;20040;-69
2022/05/02 08:29:47;;;;;;;8.90;5.67;;;19.40;44.60;;;;;;5135519;27;20142;-67
2022/05/02 08:32:28;;;;;;;7.57;5.53;;;18.90;44.90;;;;;;5135855;27;20086;-67
2022/05/02 08:35:12;;;;;;;9.20;6.00;;;18.80;46.20;;;;;;5135835;27;20039;-65
2022/05/02 08:38:00;;;;;;;8.10;6.10;;;18.70;47.30;;;;;;5135011;27;20043;-65
2022/05/02 08:40:25;;;;;;;9.17;6.33;;;18.80;46.30;;;;;;5133016;27;20114;-70
2022/05/02 08:42:57;;;;;;;9.17;5.97;;;;;;;;;;5135511;27;20076;-70
2022/05/02 08:45:42;;;;;;;7.83;5.60;;;18.30;46.80;;;;;;5135242;27;20443;-69
2022/05/02 08:48:13;;;;;;;11.50;6.53;;;18.20;47.90;;;;;;5135513;27;20088;-69
2022/05/02 08:51:03;;;;;;;8.67;6.30;;;18.10;47.80;;;;;;5133838;27;20126;-69
2022/05/02 08:53:29;;;;;;;9.13;6.60;;;18.10;48.00;;;;;;5135191;27;20540;-70
2022/05/02 08:56:06;;;;;;;9.40;6.40;;;17.90;48.00;;;;;;5135586;27;20047;-70
2022/05/02 08:58:49;;;;;;;9.73;5.87;;;17.70;48.40;;;;;;5135137;27;20130;-70
2022/05/02 09:01:52;;;;;;;7.73;5.97;;;17.60;49.20;;;;;;5135507;27;20127;-70
2022/05/02 09:04:40;;;;;;;8.63;5.80;;;17.60;79.90;;;;;;5134126;27;20053;-70
2022/05/02 09:07:27;;;;;;;11.77;6.37;;;17.50;79.00;;;;;;5134467;27;20055;-70
2022/05/02 09:10:06;;;;;;;11.60;5.90;;;17.60;66.50;;;;;;5135082;27;20039;-69
2022/05/02 09:12:53;;;;;;;8.67;6.10;;;17.40;49.80;;;;;;5134526;27;20499;-69
2022/05/02 09:15:44;;;;;;;9.60;6.40;;;;;;;;;;5134798;27;20372;-69
2022/05/02 09:18:19;;;;;;;9.83;6.50;;;;;;;;;;5133657;27;20491;-69
2022/05/02 09:20:52;;;;;;;10.43;6.27;;;17.20;87.40;;;;;;5134631;27;20096;-69
2022/05/02 09:23:38;;;;;;;9.27;6.47;;;;;;;;;;5135026;27;20470;-69
2022/05/02 09:26:08;;;;;;;8.30;6.57;;;;;;;;;;5134653;27;20047;-69
2022/05/02 09:28:55;;;;;;;8.60;6.53;;;17.10;49.70;;;;;;5133609;27;20055;-70
2022/05/02 09:31:44;;;;;;;9.43;6.10;;;16.90;50.90;;;;;;5134709;27;20387;-70
2022/05/02 09:34:17;;;;;;;8.97;5.93;;;16.70;51.40;;;;;;5134629;27;20510;-70
2022/05/02 09:37:07;;;;;;;7.53;5.87;;;16.70;52.00;;;;;;5134520;27;20047;-69
2022/05/02 09:39:48;;;;;;;7.90;5.83;;;16.70;51.70;;;;;;5134547;27;20049;-70
2022/05/02 09:42:45;;;;;;;8.40;6.07;;;16.60;51.70;;;;;;5134614;27;20517;-70
2022/05/02 09:52:06;;;;;;;8.80;5.90;;;16.70;51.60;;;;;;5134157;27;20150;-70
2022/05/02 09:58:08;;;;;;;9.13;6.07;;;16.90;51.80;;;;;;5134134;27;20130;-70
2022/05/02 10:01:07;;;;;;;12.23;6.47;;;17.10;52.50;;;;;;5134117;27;20050;-69
2022/05/02 10:03:36;;;;;;;7.73;5.40;;;17.20;51.90;;;;;;5134124;27;20059;-69
2022/05/02 10:06:04;;;;;;;13.70;5.87;;;17.10;51.80;;;;;;5134185;27;20082;-69
2022/05/02 10:08:49;;;;;;;10.17;5.97;;;17.10;52.00;;;;;;5133966;27;20057;-69
2022/05/02 10:11:40;;;;;;;9.73;5.75;;;17.20;52.10;;;;;;5134160;27;20039;-69
2022/05/02 10:14:40;;;;;;;9.00;5.93;;;17.20;52.30;;;;;;5134094;27;20054;-69
2022/05/02 10:17:14;;;;;;;9.33;5.60;;;17.20;52.20;;;;;;5134078;28;20055;-70
2022/05/02 10:20:07;;;;;;;8.63;6.30;;;17.10;52.30;;;;;;5133892;28;20096;-71
2022/05/02 10:22:46;;;;;;;8.40;5.80;;;17.10;52.50;;;;;;5134002;28;20069;-71
2022/05/02 10:25:21;;;;;;;9.53;6.03;;;17.10;52.10;;;;;;5133737;28;20511;-71
2022/05/02 10:27:59;;;;;;;;;;;17.10;52.00;;;;;;5134293;27;20051;-71
2022/05/02 10:30:37;;;;;;;8.40;5.33;;;16.90;51.80;;;;;;5133913;28;20540;-71
2022/05/02 10:33:10;;;;;;;8.20;5.60;;;16.80;51.90;;;;;;5133906;28;20507;-71
2022/05/02 10:35:37;;;;;;;11.07;5.70;;;16.80;51.50;;;;;;5132972;28;20053;-72
2022/05/02 10:38:04;;;;;;;7.73;5.47;;;16.80;51.80;;;;;;5133896;28;20043;-71
2022/05/02 10:40:42;;;;;;;8.50;5.50;;;16.80;51.60;;;;;;5133902;27;20039;-71
2022/05/02 10:43:10;;;;;;;9.70;5.57;;;16.70;52.10;;;;;;5132999;28;20062;-71
2022/05/02 10:45:38;;;;;;;9.63;5.83;;;16.70;52.40;;;;;;5133901;28;20104;-72
2022/05/02 10:48:19;;;;;;;10.67;5.83;;;16.80;51.60;;;;;;5132740;28;20475;-71
2022/05/02 10:50:59;;;;;;;8.73;5.13;;;16.70;51.80;;;;;;5133343;28;20083;-71
2022/05/02 10:53:50;;;;;;;10.00;5.70;;;16.70;52.00;;;;;;5133771;27;20047;-71
2022/05/02 10:56:23;;;;;;;8.67;5.50;;;16.70;52.20;;;;;;5133517;27;20487;-71
2022/05/02 10:58:52;;;;;;;7.57;4.77;;;16.60;52.00;;;;;;5115555;28;20051;-71
2022/05/02 11:01:54;;;;;;;12.33;5.33;;;16.60;51.80;;;;;;5133723;27;20046;-71
2022/05/02 11:04:30;;;;;;;10.57;5.30;;;16.50;51.40;;;;;;5136286;27;20043;-71
2022/05/02 11:07:27;;;;;;;6.83;4.83;;;16.40;52.00;;;;;;5137440;27;20047;-71
2022/05/02 11:10:07;;;;;;;9.50;4.77;;;16.50;51.90;;;;;;5137348;27;20051;-71
2022/05/02 11:12:44;;;;;;;6.20;4.77;;;16.60;51.80;;;;;;5137552;27;20085;-72
2022/05/02 11:15:11;;;;;;;7.47;4.90;;;16.70;51.20;;;;;;5137509;27;20058;-71
2022/05/02 11:18:04;;;;;;;7.63;5.53;;;16.80;51.40;;;;;;5136138;27;20043;-72
2022/05/02 11:20:42;;;;;;;6.97;3.80;;;;;;;;;;5137317;27;20047;-71
2022/05/02 11:23:26;;;;;;;7.33;4.27;;;;;;;;;;5137224;27;20051;-71
2022/05/02 11:26:04;;;;;;;7.03;4.47;;;;;;;;;;5137026;27;20039;-71
2022/05/02 11:29:04;;;;;;;6.17;4.00;;;16.80;61.10;;;;;;5137223;27;20082;-71
2022/05/02 11:32:08;;;;;;;7.43;4.50;;;16.70;49.50;;;;;;5137249;27;20040;-71
2022/05/02 11:34:57;;;;;;;5.53;4.00;;;16.60;50.00;;;;;;5136608;27;20137;-71
2022/05/02 11:37:54;;;;;;;9.17;3.90;;;16.50;49.90;;;;;;5137291;27;20050;-71
2022/05/02 11:40:27;;;;;;;7.50;3.90;;;16.50;49.80;;;;;;5136997;27;20043;-71
2022/05/02 11:42:54;;;;;;;7.23;3.50;;;16.50;49.30;;;;;;5136706;27;20043;-71
2022/05/02 11:45:29;;;;;;;8.00;3.90;;;16.50;49.00;;;;;;5136874;27;20050;-71
2022/05/02 11:48:05;;;;;;;7.17;4.00;;;16.40;48.70;;;;;;5136654;27;20058;-71
2022/05/02 11:50:44;;;;;;;7.17;4.10;;;16.30;49.10;;;;;;5136953;27;20039;-71
2022/05/02 11:53:13;;;;;;;7.00;4.10;;;16.30;49.20;;;;;;5137017;27;20525;-71
2022/05/02 11:55:40;;;;;;;7.83;3.67;;;16.30;49.30;;;;;;5118699;27;20050;-72
2022/05/02 11:58:26;;;;;;;6.77;3.90;;;16.30;49.30;;;;;;5136322;27;20525;-71
2022/05/02 12:01:05;;;;;;;5.50;3.40;;;16.30;49.00;;;;;;5136430;27;20040;-71
2022/05/02 12:03:59;;;;;;;5.00;2.73;;;16.30;49.00;;;;;;5136591;27;20043;-71
2022/05/02 12:07:01;;;;;;;5.47;2.93;;;16.40;47.20;;;;;;5129571;27;20407;-71
2022/05/02 12:09:34;;;;;;;5.37;3.13;;;16.40;47.30;;;;;;5136353;27;20043;-71
2022/05/02 12:12:04;;;;;;;7.50;3.37;;;16.40;47.70;;;;;;5135303;27;20081;-71
2022/05/02 12:14:31;;;;;;;9.13;4.40;;;16.40;47.70;;;;;;5135614;27;20195;-71
2022/05/02 12:17:06;;;;;;;7.80;3.80;;;16.50;47.70;;;;;;5135836;27;20126;-71
2022/05/02 12:19:33;;;;;;;6.43;2.83;;;16.40;48.10;;;;;;5136469;27;20289;-71
2022/05/02 12:22:05;;;;;;;6.40;3.00;;;16.40;47.70;;;;;;5135019;27;20086;-71
2022/05/02 12:24:34;;;;;;;8.77;2.93;;;16.40;47.50;;;;;;5136184;27;20108;-71
2022/05/02 12:27:00;;;;;;;5.53;2.80;;;16.40;46.90;;;;;;5135679;27;20280;-71
2022/05/02 12:29:27;;;;;;;5.13;2.97;;;16.30;46.80;;;;;;5135845;27;20280;-71
2022/05/02 12:31:57;;;;;;;7.87;3.73;;;16.30;47.50;;;;;;5135780;27;20440;-72
2022/05/02 12:34:37;;;;;;;7.00;3.50;;;16.30;47.00;;;;;;5136003;27;20625;-71
2022/05/02 12:37:14;;;;;;;5.27;3.20;;;16.30;46.30;;;;;;5135638;27;20055;-71
2022/05/02 12:40:04;;;;;;;7.00;3.40;;;16.20;46.30;;;;;;5135916;27;20359;-71
2022/05/02 12:42:47;;;;;;;6.17;3.27;;;16.20;47.40;;;;;;5135597;27;20277;-71
2022/05/02 12:45:17;;;;;;;6.93;3.87;;;16.30;48.10;;;;;;5135757;27;20281;-72
2022/05/02 12:48:15;;;;;;;8.77;3.70;;;16.30;48.40;;;;;;5135636;27;20712;-71
2022/05/02 12:50:46;;;;;;;5.63;3.63;;;16.30;48.90;;;;;;5135546;27;20292;-71
2022/05/02 12:56:05;;;;;;;5.87;4.30;;;16.20;49.20;;;;;;5135294;27;20943;-71
2022/05/02 13:01:20;;;;;;;7.27;4.03;;;16.20;49.00;;;;;;5135388;27;20130;-71
2022/05/02 13:03:57;;;;;;;9.40;4.53;;;16.30;49.80;;;;;;5135344;27;20368;-72
2022/05/02 13:06:23;;;;;;;7.67;4.43;;;16.30;50.60;;;;;;5134513;27;20293;-71
2022/05/02 13:08:50;;;;;;;7.57;4.90;;;16.40;50.80;;;;;;5134917;27;20361;-72
2022/05/02 13:11:25;;;;;;;6.53;4.10;;;16.30;51.20;;;;;;5135058;27;20300;-71
2022/05/02 13:13:58;;;;;;;6.83;4.20;;;16.30;51.50;;;;;;5134899;27;20606;-72
2022/05/02 13:16:32;;;;;;;7.10;4.50;;;16.30;51.80;;;;;;5134200;27;20281;-71
2022/05/02 13:19:00;;;;;;;6.73;4.47;;;16.30;51.20;;;;;;5134751;27;20364;-72
2022/05/02 13:21:27;;;;;;;9.67;4.53;;;16.40;51.20;;;;;;5135018;27;20334;-71
2022/05/02 13:23:56;;;;;;;6.50;4.20;;;16.30;51.60;;;;;;5134654;27;20288;-72
2022/05/02 13:26:53;;;;;;;9.43;4.63;;;16.40;52.00;;;;;;5134503;27;20281;-72
2022/05/02 13:29:43;;;;;;;6.90;4.60;;;16.50;52.20;;;;;;5135065;27;20287;-72
2022/05/02 13:32:25;;;;;;;6.97;4.17;;;16.40;53.00;;;;;;5134153;27;20277;-71
2022/05/02 13:35:13;;;;;;;7.67;3.70;;;16.50;53.30;;;;;;5134305;27;20663;-71
2022/05/02 13:37:58;;;;;;;5.80;3.77;;;16.50;53.20;;;;;;5133500;27;20296;-70
2022/05/02 13:40:44;;;;;;;8.20;4.40;;;16.40;52.90;;;;;;5134204;27;20679;-71
2022/05/02 13:43:18;;;;;;;8.43;4.37;;;16.50;54.10;;;;;;5134234;27;20054;-69
2022/05/02 13:46:00;;;;;;;7.30;4.30;;;16.50;53.90;;;;;;5134552;27;20277;-67
2022/05/02 13:48:55;;;;;;;8.73;4.43;;;16.50;53.80;;;;;;5134356;27;20346;-71
2022/05/02 13:51:30;;;;;;;7.73;3.93;;;16.50;54.90;;;;;;5134024;27;20313;-69
2022/05/02 13:54:05;;;;;;;8.68;4.40;;;16.50;55.10;;;;;;5133895;27;20062;-68
2022/05/02 13:56:50;;;;;;;;;;;16.50;56.00;;;;;;5134740;27;20545;-67
2022/05/02 13:59:15;;;;;;;6.33;4.10;;;16.60;56.70;;;;;;5133409;27;20025;-69